Time;durP1;ratioP1;P1;durP2;ratioP2;P2;SDS_P1;SDS_P2;PMS_P1;PMS_P2;Temp;Humidity;BMP_temperature;BMP_pressure;BME280_temperature;BME280_humidity;BME280_pressure;Samples;Min_cycle;Max_cycle;Signal;HPM_P1;HPM_P2
2023/06/08 00:00:11;;;;;;;6.57;5.85;;;18.70;99.90;18.80;100729.00;;;;5003516;27;94654;-68
2023/06/08 00:02:37;;;;;;;6.93;5.70;;;18.60;99.90;18.70;100726.00;;;;5006053;27;93722;-68
2023/06/08 00:05:04;;;;;;;7.78;6.97;;;18.60;99.90;18.70;100726.00;;;;5002004;27;93997;-68
2023/06/08 00:07:34;;;;;;;6.88;5.93;;;18.60;99.90;18.60;100729.00;;;;5008379;27;92785;-68
2023/06/08 00:10:00;;;;;;;6.40;5.80;;;18.50;99.90;18.60;100727.00;;;;5007188;27;93746;-69
2023/06/08 00:12:27;;;;;;;7.18;6.47;;;18.50;99.90;18.50;100732.00;;;;5002823;27;92913;-68
2023/06/08 00:14:53;;;;;;;5.82;4.75;;;18.40;99.90;18.50;100734.00;;;;5006243;27;92933;-68
2023/06/08 00:17:18;;;;;;;7.50;6.53;;;18.40;99.90;18.50;100730.00;;;;5002190;27;107926;-68
2023/06/08 00:19:44;;;;;;;6.90;5.10;;;18.40;99.90;18.50;100725.00;;;;5008747;27;93699;-68
2023/06/08 00:22:12;;;;;;;8.48;5.95;;;18.40;99.90;18.50;100727.00;;;;5006640;27;123283;-68
2023/06/08 00:24:38;;;;;;;6.53;5.75;;;18.30;99.90;18.50;100722.00;;;;5004463;27;93820;-68
2023/06/08 00:27:05;;;;;;;6.90;6.05;;;18.40;99.90;18.50;100732.00;;;;5005474;27;101207;-68
2023/06/08 00:29:32;;;;;;;7.60;5.68;;;18.40;99.90;18.50;100715.00;;;;5001504;27;94825;-68
2023/06/08 00:31:58;;;;;;;6.20;5.60;;;18.40;99.90;18.50;100711.00;;;;4990355;27;93741;-68
2023/06/08 00:34:26;;;;;;;6.28;5.68;;;18.40;99.90;18.50;100712.00;;;;5004573;27;111213;-69
2023/06/08 00:36:52;;;;;;;12.80;5.55;;;18.30;99.90;18.50;100706.00;;;;5008538;27;92806;-68
2023/06/08 00:39:18;;;;;;;5.90;5.15;;;18.30;99.90;18.50;100713.00;;;;5008014;27;114157;-68
2023/06/08 00:41:44;;;;;;;8.07;5.85;;;18.40;99.90;18.50;100709.00;;;;5003799;27;113666;-68
2023/06/08 00:44:10;;;;;;;5.20;4.70;;;18.40;99.90;18.50;100699.00;;;;5004352;27;93052;-68
2023/06/08 00:46:36;;;;;;;6.22;5.63;;;18.40;99.90;18.50;100698.00;;;;5005361;27;92185;-69
2023/06/08 00:49:04;;;;;;;8.68;6.15;;;18.40;99.90;18.50;100706.00;;;;4993657;27;121724;-68
2023/06/08 00:51:36;;;;;;;9.38;5.32;;;18.40;99.90;18.50;100697.00;;;;5005837;27;93699;-69
2023/06/08 00:54:02;;;;;;;5.68;4.28;;;18.40;99.90;18.50;100697.00;;;;5003038;27;93918;-69
2023/06/08 00:56:31;;;;;;;8.35;6.05;;;18.40;99.90;18.50;100704.00;;;;5000629;27;107566;-69
2023/06/08 00:59:00;;;;;;;5.93;5.32;;;18.40;99.90;18.50;100706.00;;;;5004559;27;94007;-69
2023/06/08 01:01:30;;;;;;;6.85;5.55;;;18.40;99.90;18.50;100712.00;;;;5004869;27;94000;-69
2023/06/08 01:04:05;;;;;;;6.63;5.72;;;18.40;99.90;18.60;100697.00;;;;5002949;27;92996;-68
2023/06/08 01:06:48;;;;;;;9.43;5.90;;;18.40;99.90;18.50;100692.00;;;;5003595;27;92794;-68
2023/06/08 01:09:34;;;;;;;6.22;5.47;;;18.40;99.90;18.50;100687.00;;;;5008954;27;93260;-68
2023/06/08 01:12:34;;;;;;;6.03;4.65;;;18.40;99.90;18.50;100684.00;;;;4993312;27;92816;-67
2023/06/08 01:15:20;;;;;;;6.68;5.20;;;18.40;99.90;18.50;100687.00;;;;4999479;27;92913;-67
2023/06/08 01:17:57;;;;;;;5.90;5.35;;;18.40;99.90;18.50;100684.00;;;;4992494;27;101365;-67
2023/06/08 01:20:36;;;;;;;5.20;4.68;;;18.40;99.90;18.40;100682.00;;;;5005799;27;95016;-68
2023/06/08 01:23:44;;;;;;;5.38;4.57;;;18.40;99.90;18.40;100680.00;;;;5008021;27;94292;-68
2023/06/08 01:26:15;;;;;;;6.20;5.22;;;18.30;99.90;18.40;100679.00;;;;4995487;27;93245;-68
2023/06/08 01:28:42;;;;;;;5.40;4.90;;;18.30;99.90;18.40;100671.00;;;;5010889;27;93072;-68
2023/06/08 01:31:08;;;;;;;5.95;5.22;;;18.40;99.90;18.40;100676.00;;;;5006822;27;115570;-68
2023/06/08 01:33:34;;;;;;;5.32;4.82;;;18.30;99.90;18.40;100672.00;;;;5011367;27;120583;-68
2023/06/08 01:36:08;;;;;;;9.13;5.93;;;18.30;99.90;18.40;100669.00;;;;4992250;27;105441;-69
2023/06/08 01:38:48;;;;;;;6.30;5.70;;;18.30;99.90;18.40;100669.00;;;;4987608;27;93991;-68
2023/06/08 01:41:21;;;;;;;5.45;4.93;;;18.30;99.90;18.40;100667.00;;;;5002794;27;110845;-69
2023/06/08 01:43:50;;;;;;;6.57;5.55;;;18.30;99.90;18.30;100661.00;;;;5003823;27;93306;-69
2023/06/08 01:46:18;;;;;;;6.55;5.57;;;18.30;99.90;18.30;100662.00;;;;4989873;27;93882;-68
2023/06/08 01:48:47;;;;;;;6.70;4.88;;;18.20;99.90;18.30;100665.00;;;;5008318;27;93232;-69
2023/06/08 01:51:14;;;;;;;5.20;4.70;;;18.50;99.90;18.20;100659.00;;;;4992071;27;117047;-69
2023/06/08 01:53:41;;;;;;;6.57;5.03;;;18.10;99.90;18.20;100650.00;;;;4993463;27;93142;-69
2023/06/08 01:56:07;;;;;;;5.10;4.60;;;18.10;99.90;18.20;100657.00;;;;5007374;27;92945;-69
2023/06/08 01:58:32;;;;;;;7.75;5.88;;;18.10;99.90;18.20;100648.00;;;;5003427;27;101816;-69
2023/06/08 02:00:58;;;;;;;7.50;5.47;;;18.10;99.90;18.10;100649.00;;;;5006309;27;123867;-68
2023/06/08 02:03:24;;;;;;;5.10;4.32;;;18.00;99.90;18.10;100652.00;;;;5010807;27;122314;-69
2023/06/08 02:05:50;;;;;;;5.80;5.03;;;18.00;99.90;18.00;100657.00;;;;5008082;27;94476;-69
2023/06/08 02:08:15;;;;;;;7.10;5.05;;;17.90;99.90;18.00;100646.00;;;;4990966;27;93017;-68
2023/06/08 02:10:41;;;;;;;8.38;5.50;;;17.90;99.90;17.90;100653.00;;;;5007490;27;95086;-69
2023/06/08 02:13:07;;;;;;;5.88;4.03;;;17.90;99.90;17.90;100655.00;;;;5006982;27;122673;-69
2023/06/08 02:15:32;;;;;;;5.13;4.53;;;17.80;99.90;17.80;100648.00;;;;5007869;27;110151;-69
2023/06/08 02:18:01;;;;;;;7.32;6.07;;;17.80;99.90;17.80;100652.00;;;;5005076;27;107129;-69
2023/06/08 02:20:27;;;;;;;5.30;4.78;;;17.70;99.90;17.80;100654.00;;;;5005074;27;94107;-69
2023/06/08 02:22:52;;;;;;;5.38;4.93;;;17.70;99.90;17.70;100652.00;;;;5006572;27;124086;-69
2023/06/08 02:25:18;;;;;;;6.60;5.85;;;17.70;99.90;17.70;100654.00;;;;5005468;27;93014;-69
2023/06/08 02:27:44;;;;;;;15.10;6.28;;;17.70;99.90;17.70;100658.00;;;;5009224;27;108396;-69
2023/06/08 02:30:12;;;;;;;6.57;4.90;;;17.60;99.90;17.70;100661.00;;;;5002140;27;124184;-69
2023/06/08 02:32:41;;;;;;;7.78;5.60;;;17.60;99.90;17.60;100655.00;;;;5006409;27;93688;-69
2023/06/08 02:35:07;;;;;;;5.38;4.47;;;17.60;99.90;17.60;100652.00;;;;5006338;27;93802;-69
2023/06/08 02:37:36;;;;;;;8.15;6.38;;;17.60;99.90;17.60;100653.00;;;;5004250;27;92980;-69
2023/06/08 02:40:04;;;;;;;7.57;5.25;;;17.50;99.90;17.50;100662.00;;;;5005495;27;93097;-68
2023/06/08 02:42:30;;;;;;;6.10;5.50;;;17.50;99.90;17.50;100655.00;;;;5006664;27;93543;-68
2023/06/08 02:44:55;;;;;;;5.35;4.85;;;17.50;99.90;17.50;100648.00;;;;5008615;27;92889;-68
2023/06/08 02:47:21;;;;;;;5.43;4.10;;;17.40;99.90;17.40;100648.00;;;;5009516;27;108940;-68
2023/06/08 02:49:47;;;;;;;7.22;4.80;;;17.40;99.90;17.40;100647.00;;;;5006775;27;122563;-68
2023/06/08 02:52:12;;;;;;;5.65;5.05;;;17.40;99.90;17.40;100642.00;;;;5003147;27;122071;-68
2023/06/08 02:54:38;;;;;;;6.72;6.03;;;17.30;99.90;17.40;100648.00;;;;5006820;27;93148;-68
2023/06/08 02:57:05;;;;;;;6.60;5.57;;;17.30;99.90;17.30;100646.00;;;;5001948;27;107478;-68
2023/06/08 02:59:31;;;;;;;7.68;5.32;;;17.30;99.90;17.30;100649.00;;;;5007912;27;94093;-68
2023/06/08 03:01:57;;;;;;;6.00;5.45;;;17.20;99.90;17.30;100655.00;;;;5005693;27;93602;-68
2023/06/08 03:04:27;;;;;;;5.88;4.82;;;17.20;99.90;17.30;100655.00;;;;5005522;27;93093;-68
2023/06/08 03:06:53;;;;;;;5.97;5.38;;;17.20;99.90;17.30;100644.00;;;;5006943;27;92977;-69
2023/06/08 03:09:24;;;;;;;7.95;5.45;;;17.20;99.90;17.30;100643.00;;;;5006403;27;93044;-68
2023/06/08 03:11:51;;;;;;;8.55;5.85;;;17.20;99.90;17.30;100643.00;;;;5006212;27;93612;-68
2023/06/08 03:14:18;;;;;;;8.45;5.90;;;17.20;99.90;17.30;100633.00;;;;5008314;27;93898;-69
2023/06/08 03:16:45;;;;;;;6.32;4.72;;;17.20;99.90;17.20;100638.00;;;;4990283;27;92340;-68
2023/06/08 03:19:12;;;;;;;5.07;4.68;;;17.20;99.90;17.20;100630.00;;;;5005307;27;94194;-68
2023/06/08 03:21:41;;;;;;;6.70;5.85;;;17.10;99.90;17.20;100636.00;;;;5005473;27;92728;-69
2023/06/08 03:24:11;;;;;;;8.63;6.03;;;17.10;99.90;17.20;100648.00;;;;4994614;27;93795;-68
2023/06/08 03:26:37;;;;;;;5.22;4.68;;;17.10;99.90;17.20;100650.00;;;;5006298;27;92933;-68
2023/06/08 03:29:03;;;;;;;7.30;5.43;;;17.20;99.90;17.20;100655.00;;;;5004006;27;100588;-68
2023/06/08 03:31:29;;;;;;;8.13;5.97;;;17.10;99.90;17.20;100653.00;;;;5007291;27;122107;-68
2023/06/08 03:33:56;;;;;;;5.15;4.20;;;17.10;99.90;17.20;100646.00;;;;4988544;27;93034;-69
2023/06/08 03:36:33;;;;;;;16.23;5.25;;;17.10;99.90;17.20;100647.00;;;;5005151;27;92943;-68
2023/06/08 03:39:01;;;;;;;6.40;5.80;;;17.10;99.90;17.20;100641.00;;;;5006408;27;92862;-68
2023/06/08 03:41:27;;;;;;;7.07;5.55;;;17.10;99.90;17.10;100643.00;;;;5005958;27;93270;-68
2023/06/08 03:43:54;;;;;;;5.63;4.90;;;17.00;99.90;17.10;100634.00;;;;5013940;27;103195;-68
2023/06/08 03:46:20;;;;;;;4.80;4.35;;;17.10;99.90;17.10;100630.00;;;;5018452;27;92779;-68
2023/06/08 03:48:47;;;;;;;8.57;5.47;;;17.00;99.90;17.10;100622.00;;;;4991523;27;94002;-68
2023/06/08 03:51:14;;;;;;;6.13;5.10;;;17.00;99.90;17.10;100628.00;;;;5004874;27;94664;-68
2023/06/08 03:53:40;;;;;;;6.63;4.88;;;17.00;99.90;17.00;100640.00;;;;5002446;27;92781;-68
2023/06/08 03:56:06;;;;;;;5.93;5.38;;;17.00;99.90;17.00;100637.00;;;;5002038;27;107563;-68
2023/06/08 03:58:32;;;;;;;5.07;4.60;;;16.90;99.90;17.00;100632.00;;;;5002168;27;98023;-68
2023/06/08 04:00:58;;;;;;;6.60;5.35;;;16.90;99.90;17.00;100633.00;;;;5005875;27;93160;-68
2023/06/08 04:03:25;;;;;;;9.95;5.75;;;16.90;99.90;17.00;100628.00;;;;5004199;27;92801;-68
2023/06/08 04:05:51;;;;;;;6.57;5.75;;;16.90;99.90;17.00;100632.00;;;;5004323;27;92136;-68
2023/06/08 04:08:17;;;;;;;8.15;5.78;;;16.90;99.90;17.00;100630.00;;;;5000522;27;123020;-68
2023/06/08 04:10:44;;;;;;;5.38;4.88;;;16.90;99.90;17.10;100633.00;;;;4989755;27;109066;-69
2023/06/08 04:13:10;;;;;;;10.30;6.30;;;17.00;99.90;17.10;100622.00;;;;5005327;27;93997;-69
2023/06/08 04:15:36;;;;;;;6.10;5.00;;;17.00;99.90;17.10;100623.00;;;;4992250;27;93111;-68
2023/06/08 04:18:02;;;;;;;6.40;5.50;;;17.00;99.90;17.10;100621.00;;;;4999624;27;102148;-68
2023/06/08 04:20:28;;;;;;;5.30;4.35;;;17.00;99.90;17.10;100617.00;;;;5006795;27;93734;-68
2023/06/08 04:22:53;;;;;;;9.52;6.75;;;17.00;99.90;17.20;100619.00;;;;5003046;27;110109;-68
2023/06/08 04:25:19;;;;;;;6.25;5.35;;;17.10;99.90;17.20;100623.00;;;;5004865;27;93131;-68
2023/06/08 04:27:46;;;;;;;5.53;4.93;;;17.10;99.90;17.20;100620.00;;;;5002882;27;101109;-68
2023/06/08 04:30:12;;;;;;;6.00;4.93;;;17.10;99.90;17.30;100622.00;;;;5004251;27;95005;-68
2023/06/08 04:32:38;;;;;;;6.20;4.90;;;17.20;99.90;17.30;100632.00;;;;5005248;27;93099;-68
2023/06/08 04:35:04;;;;;;;6.78;5.18;;;17.20;99.90;17.40;100628.00;;;;5005095;27;92954;-69
2023/06/08 04:37:30;;;;;;;4.93;4.32;;;17.30;99.90;17.50;100624.00;;;;5004428;27;94428;-68
2023/06/08 04:39:56;;;;;;;5.25;4.75;;;17.30;99.90;17.60;100625.00;;;;4991157;27;94795;-68
2023/06/08 04:42:23;;;;;;;4.97;4.47;;;17.40;99.90;17.70;100631.00;;;;5005117;27;92926;-68
2023/06/08 04:44:50;;;;;;;4.95;4.05;;;17.50;99.90;17.80;100619.00;;;;5006284;27;92892;-68
2023/06/08 04:47:17;;;;;;;5.53;4.30;;;17.60;99.90;17.90;100623.00;;;;5005630;27;94116;-68
2023/06/08 04:49:42;;;;;;;5.20;4.25;;;17.80;99.90;18.10;100621.00;;;;4994473;27;93602;-68
2023/06/08 04:52:09;;;;;;;5.63;4.47;;;17.90;99.90;18.20;100628.00;;;;5006589;27;110791;-70
2023/06/08 04:54:36;;;;;;;5.38;4.38;;;18.00;99.90;18.40;100622.00;;;;5006689;27;92438;-68
2023/06/08 04:57:03;;;;;;;5.18;4.35;;;18.20;99.90;18.60;100625.00;;;;5006862;27;93419;-68
2023/06/08 04:59:29;;;;;;;5.57;4.55;;;18.40;99.90;18.80;100636.00;;;;5005149;27;92956;-68
2023/06/08 05:01:55;;;;;;;5.45;4.50;;;18.50;99.90;18.90;100636.00;;;;5000319;27;94085;-68
2023/06/08 05:04:21;;;;;;;6.07;4.75;;;18.70;99.90;19.10;100637.00;;;;5002941;27;93013;-68
2023/06/08 05:06:47;;;;;;;6.65;5.18;;;18.90;99.90;19.20;100640.00;;;;5000196;27;122958;-69
2023/06/08 05:09:13;;;;;;;5.07;4.50;;;19.00;99.90;19.30;100642.00;;;;5003607;27;94195;-68
2023/06/08 05:11:40;;;;;;;4.60;3.78;;;19.10;99.90;19.30;100639.00;;;;4986828;27;93388;-67
2023/06/08 05:14:10;;;;;;;5.63;4.63;;;19.20;99.90;19.50;100637.00;;;;5001144;27;92953;-68
2023/06/08 05:16:37;;;;;;;8.52;5.38;;;19.20;99.90;19.60;100633.00;;;;5005801;27;93938;-69
2023/06/08 05:19:08;;;;;;;7.47;3.65;;;19.40;99.90;19.70;100627.00;;;;5006715;27;92721;-69
2023/06/08 05:21:36;;;;;;;4.88;3.13;;;19.50;99.90;20.00;100633.00;;;;4970825;27;92847;-68
2023/06/08 05:24:02;;;;;;;3.75;3.45;;;19.70;99.90;20.20;100635.00;;;;5003480;27;93317;-68
2023/06/08 05:26:28;;;;;;;5.93;3.45;;;19.90;99.90;20.40;100632.00;;;;4997517;27;112997;-68
2023/06/08 05:28:53;;;;;;;3.45;2.70;;;20.10;99.90;20.60;100639.00;;;;5001517;27;122714;-68
2023/06/08 05:31:19;;;;;;;3.72;3.40;;;20.30;99.90;20.80;100632.00;;;;5000148;27;108838;-68
2023/06/08 05:33:45;;;;;;;3.10;2.80;;;20.50;99.90;21.00;100630.00;;;;5001007;27;98386;-68
2023/06/08 05:36:12;;;;;;;4.72;2.78;;;20.70;99.90;21.20;100635.00;;;;5003107;27;120213;-68
2023/06/08 05:38:38;;;;;;;6.07;3.22;;;20.90;99.60;21.40;100639.00;;;;5000864;27;114941;-68
2023/06/08 05:41:03;;;;;;;3.45;3.15;;;21.10;98.80;21.60;100643.00;;;;5002728;27;109824;-68
2023/06/08 05:43:29;;;;;;;4.10;3.03;;;21.30;98.00;21.70;100643.00;;;;4989756;27;92317;-67
2023/06/08 05:45:55;;;;;;;3.08;2.78;;;21.40;97.20;21.90;100647.00;;;;5003253;27;93429;-67
2023/06/08 05:48:20;;;;;;;3.90;2.85;;;21.60;96.50;22.00;100640.00;;;;5001527;27;122340;-67
2023/06/08 05:50:46;;;;;;;3.38;3.08;;;21.70;95.80;22.10;100650.00;;;;5004242;27;110702;-67
2023/06/08 05:53:12;;;;;;;4.10;3.40;;;21.80;94.20;22.10;100641.00;;;;5002000;27;107797;-68
2023/06/08 05:55:41;;;;;;;3.40;3.10;;;21.90;93.90;22.20;100639.00;;;;5002381;27;120692;-67
2023/06/08 05:58:10;;;;;;;4.35;2.88;;;21.90;93.10;22.20;100647.00;;;;5005349;27;93694;-67
2023/06/08 06:00:36;;;;;;;3.90;2.97;;;21.90;92.50;22.20;100637.00;;;;5012290;27;92936;-67
2023/06/08 06:03:01;;;;;;;5.18;3.30;;;22.00;92.00;22.20;100641.00;;;;5004945;27;107326;-68
2023/06/08 06:05:27;;;;;;;3.17;2.72;;;22.00;91.20;22.30;100646.00;;;;5006240;27;116048;-68
2023/06/08 06:07:53;;;;;;;3.05;2.72;;;22.00;91.20;22.40;100651.00;;;;5010605;27;123117;-66
2023/06/08 06:10:18;;;;;;;4.13;3.58;;;22.20;91.30;22.50;100642.00;;;;5007558;27;110394;-66
2023/06/08 06:12:44;;;;;;;5.00;2.97;;;22.30;89.20;22.50;100641.00;;;;5004738;27;97799;-67
2023/06/08 06:15:10;;;;;;;4.20;3.03;;;22.30;88.10;22.70;100652.00;;;;5007271;27;122304;-66
2023/06/08 06:17:36;;;;;;;4.13;2.72;;;22.40;89.30;22.90;100643.00;;;;5008706;27;94526;-66
2023/06/08 06:20:05;;;;;;;7.43;2.60;;;22.60;88.10;23.10;100647.00;;;;5006177;27;110349;-67
2023/06/08 06:22:30;;;;;;;5.40;2.42;;;22.80;86.60;23.30;100642.00;;;;5005091;27;92634;-67
2023/06/08 06:24:56;;;;;;;2.97;2.70;;;23.00;84.30;23.40;100648.00;;;;5007166;27;120853;-69
2023/06/08 06:27:21;;;;;;;3.55;2.47;;;23.20;83.20;23.70;100646.00;;;;5005752;27;122154;-68
2023/06/08 06:29:48;;;;;;;2.80;2.35;;;23.30;81.60;23.90;100656.00;;;;5009199;27;109610;-68
2023/06/08 06:32:13;;;;;;;3.50;2.50;;;23.50;78.70;24.00;100647.00;;;;5010865;27;92050;-68
2023/06/08 06:34:43;;;;;;;2.60;2.40;;;23.70;75.60;24.10;100660.00;;;;4984291;27;98695;-68
2023/06/08 06:37:09;;;;;;;5.65;2.70;;;23.80;76.00;24.30;100649.00;;;;5007169;27;93037;-68
2023/06/08 06:39:35;;;;;;;3.63;2.22;;;24.00;75.60;24.50;100655.00;;;;5008311;27;93829;-68
2023/06/08 06:42:01;;;;;;;4.68;2.15;;;24.10;75.20;24.70;100665.00;;;;5007477;27;107579;-68
2023/06/08 06:44:29;;;;;;;3.88;2.58;;;24.30;74.80;24.90;100658.00;;;;5007398;27;123149;-67
2023/06/08 06:46:55;;;;;;;6.40;2.58;;;24.50;73.60;25.10;100659.00;;;;5006117;27;92995;-67
2023/06/08 06:49:21;;;;;;;3.40;2.10;;;24.80;72.80;25.20;100662.00;;;;4987957;27;96539;-68
2023/06/08 06:51:46;;;;;;;2.47;2.28;;;24.90;70.00;25.20;100663.00;;;;5003227;27;107305;-69
2023/06/08 06:54:12;;;;;;;2.72;2.50;;;24.90;66.70;25.10;100664.00;;;;5005158;27;122710;-69
2023/06/08 06:56:38;;;;;;;2.95;2.17;;;24.90;64.90;25.00;100667.00;;;;5007756;27;106041;-67
2023/06/08 06:59:05;;;;;;;3.22;2.30;;;24.80;61.70;24.90;100680.00;;;;5007830;27;93105;-67
2023/06/08 07:01:35;;;;;;;2.50;2.30;;;24.70;61.50;24.80;100670.00;;;;5005376;27;93053;-70
2023/06/08 07:04:05;;;;;;;2.53;2.30;;;24.60;60.70;24.60;100675.00;;;;5008558;27;93873;-67
2023/06/08 07:06:31;;;;;;;4.80;2.22;;;24.40;60.00;24.50;100672.00;;;;4995448;27;93782;-68
2023/06/08 07:08:57;;;;;;;2.58;2.25;;;24.30;60.20;24.40;100657.00;;;;5008589;27;99814;-67
2023/06/08 07:11:23;;;;;;;2.40;2.20;;;24.20;59.70;24.30;100671.00;;;;5004448;27;93070;-68
2023/06/08 07:13:48;;;;;;;2.30;2.00;;;24.10;59.70;24.30;100668.00;;;;5003519;27;121373;-68
2023/06/08 07:16:14;;;;;;;3.15;2.33;;;24.00;60.50;24.30;100667.00;;;;5007455;27;93617;-70
2023/06/08 07:18:40;;;;;;;4.45;2.97;;;24.00;61.20;24.40;100667.00;;;;4988530;27;109601;-68
2023/06/08 07:21:06;;;;;;;2.88;2.30;;;24.10;60.50;24.50;100673.00;;;;5008920;27;92785;-69
2023/06/08 07:23:31;;;;;;;5.07;2.72;;;24.20;60.90;24.80;100671.00;;;;5004469;27;93731;-70
2023/06/08 07:25:57;;;;;;;3.08;2.47;;;24.40;61.20;25.10;100669.00;;;;5004409;27;123257;-70
2023/06/08 07:28:23;;;;;;;5.45;2.35;;;24.60;61.10;25.40;100669.00;;;;5002329;27;110412;-69
2023/06/08 07:30:48;;;;;;;4.88;2.85;;;25.00;60.70;25.60;100675.00;;;;5006959;27;107236;-69
2023/06/08 07:33:14;;;;;;;3.15;2.83;;;25.20;58.90;25.80;100665.00;;;;5002640;27;123963;-68
2023/06/08 07:35:40;;;;;;;3.10;2.88;;;25.40;58.40;26.00;100671.00;;;;5005561;27;92988;-69
2023/06/08 07:38:06;;;;;;;2.90;2.38;;;25.60;57.90;26.20;100674.00;;;;5007236;27;92906;-69
2023/06/08 07:40:32;;;;;;;3.58;3.10;;;25.80;58.00;26.40;100664.00;;;;5005322;27;92692;-70
2023/06/08 07:42:57;;;;;;;2.70;2.50;;;26.00;57.10;26.50;100669.00;;;;5004400;27;93289;-68
2023/06/08 07:45:23;;;;;;;3.58;3.10;;;26.10;56.30;26.70;100671.00;;;;5003812;27;120894;-69
2023/06/08 07:47:49;;;;;;;3.00;2.33;;;26.30;56.60;26.90;100673.00;;;;5004674;27;96522;-72
2023/06/08 07:50:15;;;;;;;3.42;2.70;;;26.50;56.50;27.20;100673.00;;;;4987411;27;92990;-72
2023/06/08 07:52:41;;;;;;;5.15;3.13;;;26.80;55.60;27.40;100675.00;;;;5007823;27;94647;-72
2023/06/08 07:55:07;;;;;;;3.88;2.70;;;27.00;55.00;27.60;100676.00;;;;5007591;27;93643;-73
2023/06/08 07:57:33;;;;;;;4.78;2.60;;;27.20;55.00;28.00;100683.00;;;;4992300;27;96378;-71
2023/06/08 07:59:58;;;;;;;3.35;2.83;;;27.50;55.00;28.30;100684.00;;;;5004660;27;93193;-72
2023/06/08 08:02:24;;;;;;;4.63;2.90;;;27.90;54.50;28.70;100681.00;;;;5003653;27;122367;-71
2023/06/08 08:04:50;;;;;;;3.65;2.92;;;28.20;53.70;29.00;100682.00;;;;5002837;27;121150;-72
2023/06/08 08:07:16;;;;;;;4.63;2.92;;;28.60;53.40;29.40;100673.00;;;;5005118;27;92951;-72
2023/06/08 08:09:42;;;;;;;4.28;3.70;;;28.90;52.70;29.70;100678.00;;;;5005332;27;107807;-73
2023/06/08 08:12:09;;;;;;;5.30;3.13;;;29.30;51.50;30.00;100683.00;;;;4976536;27;95334;-72
2023/06/08 08:14:36;;;;;;;3.70;3.22;;;29.50;50.50;30.10;100682.00;;;;4968951;27;95262;-73
2023/06/08 08:17:05;;;;;;;4.82;3.50;;;29.70;50.00;30.20;100681.00;;;;5006344;27;94033;-74
2023/06/08 08:19:31;;;;;;;4.32;3.22;;;29.90;49.10;30.30;100680.00;;;;4976577;27;93362;-74
2023/06/08 08:21:57;;;;;;;3.38;2.55;;;30.00;47.60;30.50;100680.00;;;;5004366;27;121782;-73
2023/06/08 08:24:22;;;;;;;3.38;3.08;;;30.10;47.80;30.60;100689.00;;;;5010485;27;122148;-74
2023/06/08 08:26:52;;;;;;;4.40;2.17;;;30.30;47.70;30.70;100688.00;;;;5005958;27;108521;-73
2023/06/08 08:29:18;;;;;;;2.58;2.38;;;30.30;47.40;30.70;100688.00;;;;4996162;27;92859;-73
2023/06/08 08:31:44;;;;;;;2.97;2.63;;;30.40;47.40;30.60;100684.00;;;;5004973;27;93539;-73
2023/06/08 08:34:12;;;;;;;2.97;2.33;;;30.40;47.30;30.70;100693.00;;;;5002333;27;95458;-73
2023/06/08 08:36:38;;;;;;;3.53;2.95;;;30.40;47.10;30.70;100689.00;;;;5002677;27;93201;-71
2023/06/08 08:39:04;;;;;;;2.92;2.53;;;30.40;47.00;30.70;100685.00;;;;5002511;27;108918;-75
2023/06/08 08:41:32;;;;;;;5.28;3.25;;;30.40;46.80;30.90;100697.00;;;;5001870;27;124433;-73
2023/06/08 08:44:03;;;;;;;3.47;2.55;;;30.50;46.50;31.00;100687.00;;;;4989526;27;94017;-73
2023/06/08 08:46:33;;;;;;;3.67;2.63;;;30.60;46.30;31.20;100685.00;;;;4976257;27;93132;-75
2023/06/08 08:49:04;;;;;;;4.60;2.97;;;30.80;46.10;31.40;100686.00;;;;5004682;27;92791;-72
2023/06/08 08:51:32;;;;;;;3.65;2.85;;;31.00;45.80;31.70;100687.00;;;;4999847;27;95119;-73
2023/06/08 08:54:00;;;;;;;2.95;2.67;;;31.20;45.50;31.80;100680.00;;;;5005787;27;93157;-75
2023/06/08 08:56:28;;;;;;;4.40;2.78;;;31.40;45.30;32.00;100686.00;;;;5004434;27;93099;-73
2023/06/08 08:58:54;;;;;;;3.78;3.38;;;31.60;44.80;32.10;100686.00;;;;4988001;27;92410;-76
2023/06/08 09:01:22;;;;;;;4.22;2.80;;;31.70;44.30;32.10;100692.00;;;;4994246;27;96310;-76
2023/06/08 09:03:52;;;;;;;5.22;3.42;;;31.70;44.10;32.00;100687.00;;;;5004180;27;93984;-73
2023/06/08 09:06:18;;;;;;;2.83;2.38;;;31.80;43.70;31.90;100687.00;;;;5004793;27;94067;-76
2023/06/08 09:08:44;;;;;;;4.53;2.47;;;31.80;43.60;31.80;100685.00;;;;5001449;27;99681;-74
2023/06/08 09:11:11;;;;;;;3.78;3.08;;;31.60;43.50;31.70;100683.00;;;;5001580;27;94169;-75
2023/06/08 09:13:41;;;;;;;3.13;2.83;;;31.50;43.60;31.60;100687.00;;;;5004256;27;93700;-73
2023/06/08 09:16:16;;;;;;;5.97;2.63;;;31.40;43.70;31.70;100687.00;;;;5004630;27;93202;-75
2023/06/08 09:18:43;;;;;;;3.13;2.58;;;31.30;43.60;31.90;100673.00;;;;4993470;27;93186;-76
2023/06/08 09:21:24;;;;;;;4.18;3.10;;;31.50;43.60;32.00;100677.00;;;;4988236;27;95254;-74
2023/06/08 09:24:16;;;;;;;4.80;3.30;;;31.60;43.50;32.20;100673.00;;;;5006359;27;93177;-75
2023/06/08 09:26:58;;;;;;;2.63;2.38;;;31.80;42.90;32.20;100671.00;;;;5004054;27;92851;-77
2023/06/08 09:29:36;;;;;;;7.38;2.30;;;31.80;43.00;32.20;100665.00;;;;5003117;27;92948;-74
2023/06/08 09:32:03;;;;;;;4.38;3.22;;;31.80;43.10;32.20;100670.00;;;;5009688;27;95166;-75
2023/06/08 09:34:29;;;;;;;3.95;2.97;;;31.90;42.60;32.20;100671.00;;;;5004384;27;94628;-75
2023/06/08 09:37:06;;;;;;;3.80;2.95;;;31.80;42.20;32.20;100664.00;;;;4994550;27;93215;-74
2023/06/08 09:39:43;;;;;;;5.22;3.30;;;31.80;42.20;32.30;100677.00;;;;4996443;27;92702;-77
2023/06/08 09:42:09;;;;;;;3.97;2.78;;;31.90;42.60;32.40;100672.00;;;;4989954;27;92985;-73
2023/06/08 09:44:36;;;;;;;4.03;3.35;;;31.90;42.50;32.60;100675.00;;;;4975048;27;95302;-74
2023/06/08 09:47:25;;;;;;;2.72;2.53;;;32.10;41.90;32.80;100669.00;;;;4996756;27;93205;-75
2023/06/08 09:49:53;;;;;;;3.88;3.05;;;32.30;41.80;33.00;100672.00;;;;4979952;27;99209;-76
2023/06/08 09:52:20;;;;;;;3.65;3.35;;;32.40;41.70;33.10;100670.00;;;;4995753;27;93113;-73
2023/06/08 09:54:46;;;;;;;3.53;2.70;;;32.60;41.70;33.30;100670.00;;;;5007454;27;92802;-74
2023/06/08 09:57:15;;;;;;;3.80;2.72;;;32.80;41.50;33.50;100661.00;;;;5006520;27;93732;-73
2023/06/08 09:59:53;;;;;;;8.52;2.85;;;32.90;41.20;33.70;100663.00;;;;5006239;27;92560;-74
2023/06/08 10:02:30;;;;;;;2.78;2.58;;;33.10;41.00;33.90;100659.00;;;;5010512;27;93246;-75
2023/06/08 10:05:04;;;;;;;3.50;2.55;;;33.30;40.40;34.10;100664.00;;;;4995228;27;93586;-77
2023/06/08 10:07:35;;;;;;;5.63;2.85;;;33.40;40.00;34.20;100662.00;;;;5000514;27;98996;-73
2023/06/08 10:10:16;;;;;;;3.45;2.35;;;33.60;38.50;34.40;100662.00;;;;4999117;27;93045;-74
2023/06/08 10:12:43;;;;;;;3.33;2.35;;;33.70;38.70;34.50;100665.00;;;;4993832;27;93486;-76
2023/06/08 10:15:09;;;;;;;2.40;1.95;;;33.80;38.50;34.40;100661.00;;;;4994355;27;110295;-73
2023/06/08 10:17:36;;;;;;;2.40;1.80;;;33.80;36.80;34.40;100656.00;;;;5005621;27;92916;-73
2023/06/08 10:20:03;;;;;;;3.75;2.67;;;33.80;37.00;34.40;100655.00;;;;4987395;27;93344;-75
2023/06/08 10:22:29;;;;;;;2.63;1.95;;;33.80;37.30;34.40;100647.00;;;;5005111;27;95409;-77
2023/06/08 10:24:55;;;;;;;3.00;2.47;;;33.80;37.30;34.50;100650.00;;;;4994786;27;123582;-76
2023/06/08 10:27:23;;;;;;;3.33;3.03;;;33.80;37.90;34.60;100645.00;;;;5009245;27;110418;-73
2023/06/08 10:30:03;;;;;;;2.63;1.95;;;33.80;37.30;34.80;100638.00;;;;5003838;27;97716;-73
2023/06/08 10:32:33;;;;;;;3.70;2.25;;;34.00;37.60;35.00;100648.00;;;;4975375;27;94575;-74
2023/06/08 10:35:08;;;;;;;2.22;1.98;;;34.20;38.00;34.90;100641.00;;;;4977636;27;94730;-74
2023/06/08 10:37:36;;;;;;;5.22;3.38;;;34.30;36.90;34.60;100641.00;;;;4988449;27;102622;-75
2023/06/08 10:40:11;;;;;;;3.70;2.42;;;34.00;36.00;34.30;100642.00;;;;4995530;27;92488;-75
2023/06/08 10:42:49;;;;;;;3.65;2.60;;;33.80;37.20;34.50;100635.00;;;;4985238;27;93177;-74
2023/06/08 10:45:15;;;;;;;3.25;2.45;;;33.80;37.80;34.90;100631.00;;;;5001589;27;92964;-73
2023/06/08 10:47:42;;;;;;;2.35;2.05;;;34.10;37.70;35.30;100628.00;;;;5002264;27;110634;-76